Kezdőlap
METAR-TAF:

METAR-TAF

Repülőterek :

Waterloo, Iowa, Amerikai Egyesült Államok

földrajzi szélesség: 42-33-16N, földrajzi hosszúság: 092-24-04W, magasság: 266 m

Jelenlegi meteorológiai megfigyelések

A jelentés 48 perccel ezelõtt készült, 16:54 UTC
Északkeleti szél 8 kt széllökések: 18 kt
Hőmérséklet 13°C
Páratartalom 30%
Légköri nyomás 1029 hPa
Látótávolság: 16.1 km
Derült ég

METAR: KALO 111654Z 05008G18KT 10SM CLR 13/M04 A3038 RMK AO2 SLP293 T01331039

Idő: 12:42 (17:42 UTC)

Előrejelzés

A jelentés 14 perccel ezelõtt készült, 17:28 UTC
Az előrejelzés 11-én 18 óra UTC és 12-én 18 óra UTC között érvényes
Kelet-északkeleti szél 8 kt
Látótávolság: 10 km
Kevés felhő 25000 lábon
12-én 1700 órától UTC szerint
Délkeleti szél 3 kt
Látótávolság: 10 km
Derült ég

TAF: KALO 111728Z 1118/1218 06008KT P6SM FEW250 FM121700 14003KT P6SM SKC

Meteorológiai megfigyelések és előrejelzések több, mint 4000 repülőtéren (METAR és TAF jelentéseket).

A térképen piros és sárga pontok jelzik az elérhető meteorológiai állomásokat.

Mozgassa az egeret a pont fölött, hogy megjelenjen az állomás neve.

Azután kattintson az időjárási megfigyelések és előrejelzések megtekintéséhez.

A térkép megváltoztatása: kattintson a fekete keresztel jelölt zöld gombra ráközelítéshez, a vonallal jelölt zöld gombra távolításhoz, vagy a zöld nyilakra a szomszédos térképek eléréséhez.


METAR-TAF: